SWA3176 KMCO-KBNA
Flight info
| Callsign | SWA3176 |
|---|---|
| Flight time | 1h 30m |
| Altitude | 36000 |
| Route | RDSOX1 JFRYS BRUTS Q118 THRSR SWFFT3 |
| Aircraft | B38M/M-SADE2E3GHIJ4J7P2RWZ/LB1D1 |
Departure
| Time | 2026-05-04 03:00 |
|---|---|
| Airport | Orlando International Airport (KMCO) |
Arrival
| Time | 2026-05-04 04:30 |
|---|---|
| Airport | Nashville International Airport (KBNA) |
| Time | Latitude | Longitude | Altitude | Speed | Heading |
|---|---|---|---|---|---|
| 2026-05-04 02:48 | 28.43408 | -81.30119 | 97 ft | 0 kts | 63° |
| 2026-05-04 02:49 | 28.43400 | -81.30139 | 97 ft | 4 kts | 70° |
| 2026-05-04 02:49 | 28.43395 | -81.30168 | 96 ft | 4 kts | 97° |
| 2026-05-04 02:50 | 28.43401 | -81.30185 | 95 ft | 4 kts | 178° |
| 2026-05-04 02:50 | 28.43409 | -81.30183 | 99 ft | 1 kts | 200° |
| 2026-05-04 02:53 | 28.43407 | -81.30184 | 97 ft | 2 kts | 200° |
| 2026-05-04 02:53 | 28.43368 | -81.30197 | 97 ft | 11 kts | 185° |
| 2026-05-04 02:54 | 28.43294 | -81.30113 | 99 ft | 20 kts | 117° |
| 2026-05-04 02:54 | 28.43281 | -81.30029 | 97 ft | 8 kts | 80° |
| 2026-05-04 02:54 | 28.43301 | -81.29951 | 98 ft | 12 kts | 69° |
| 2026-05-04 02:54 | 28.43359 | -81.29885 | 99 ft | 13 kts | 3° |
| 2026-05-04 02:55 | 28.43630 | -81.29888 | 100 ft | 26 kts | 360° |
| 2026-05-04 02:55 | 28.43812 | -81.29946 | 98 ft | 30 kts | 336° |
| 2026-05-04 02:55 | 28.43903 | -81.30135 | 103 ft | 30 kts | 273° |
| 2026-05-04 02:56 | 28.43914 | -81.30385 | 104 ft | 34 kts | 272° |
| 2026-05-04 02:56 | 28.43931 | -81.30669 | 111 ft | 38 kts | 274° |
| 2026-05-04 02:56 | 28.43942 | -81.30994 | 110 ft | 44 kts | 269° |
| 2026-05-04 02:56 | 28.43929 | -81.31357 | 108 ft | 49 kts | 267° |
| 2026-05-04 02:57 | 28.43923 | -81.31717 | 107 ft | 35 kts | 270° |
| 2026-05-04 02:57 | 28.43825 | -81.31848 | 101 ft | 26 kts | 179° |
| 2026-05-04 02:57 | 28.43615 | -81.31846 | 101 ft | 36 kts | 179° |
| 2026-05-04 02:57 | 28.43325 | -81.31842 | 102 ft | 47 kts | 179° |
| 2026-05-04 02:58 | 28.42973 | -81.31838 | 100 ft | 54 kts | 180° |
| 2026-05-04 02:58 | 28.42597 | -81.31834 | 104 ft | 54 kts | 180° |
| 2026-05-04 02:58 | 28.42218 | -81.31847 | 101 ft | 54 kts | 194° |
| 2026-05-04 02:58 | 28.41849 | -81.31875 | 100 ft | 52 kts | 179° |
| 2026-05-04 02:59 | 28.41577 | -81.31887 | 101 ft | 24 kts | 206° |
| 2026-05-04 02:59 | 28.41544 | -81.32051 | 100 ft | 23 kts | 268° |
| 2026-05-04 02:59 | 28.41605 | -81.32197 | 101 ft | 30 kts | 358° |
| 2026-05-04 02:59 | 28.42088 | -81.32203 | 102 ft | 106 kts | 359° |
| 2026-05-04 03:00 | 28.43034 | -81.32206 | 131 ft | 161 kts | 1° |
| 2026-05-04 03:00 | 28.44178 | -81.32223 | 828 ft | 165 kts | 1° |
| 2026-05-04 03:00 | 28.45353 | -81.32260 | 1511 ft | 178 kts | 4° |
| 2026-05-04 03:00 | 28.46678 | -81.32274 | 1996 ft | 202 kts | 4° |
| 2026-05-04 03:01 | 28.48141 | -81.32284 | 2687 ft | 213 kts | 4° |
| 2026-05-04 03:01 | 28.49623 | -81.32290 | 3579 ft | 216 kts | 2° |
| 2026-05-04 03:01 | 28.51184 | -81.32312 | 4201 ft | 234 kts | 357° |
| 2026-05-04 03:01 | 28.52870 | -81.32513 | 4803 ft | 252 kts | 354° |
| 2026-05-04 03:02 | 28.54626 | -81.32790 | 5649 ft | 255 kts | 343° |
| 2026-05-04 03:02 | 28.56244 | -81.33548 | 6571 ft | 256 kts | 334° |
| 2026-05-04 03:02 | 28.57884 | -81.34422 | 6931 ft | 267 kts | 328° |
| 2026-05-04 03:02 | 28.59225 | -81.35877 | 7010 ft | 273 kts | 306° |
| 2026-05-04 03:03 | 28.60525 | -81.37484 | 7779 ft | 275 kts | 315° |
| 2026-05-04 03:03 | 28.61897 | -81.39007 | 8700 ft | 276 kts | 313° |
| 2026-05-04 03:03 | 28.63257 | -81.40555 | 9637 ft | 277 kts | 312° |
| 2026-05-04 03:03 | 28.64612 | -81.42116 | 10481 ft | 280 kts | 311° |
| 2026-05-04 03:04 | 28.66021 | -81.43755 | 10893 ft | 299 kts | 311° |
| 2026-05-04 03:04 | 28.67512 | -81.45498 | 11390 ft | 313 kts | 311° |
| 2026-05-04 03:04 | 28.69045 | -81.47296 | 12153 ft | 317 kts | 310° |
| 2026-05-04 03:04 | 28.70588 | -81.49108 | 13004 ft | 321 kts | 310° |
| 2026-05-04 03:05 | 28.72147 | -81.50942 | 13857 ft | 324 kts | 309° |
| 2026-05-04 03:05 | 28.73724 | -81.52797 | 14643 ft | 328 kts | 309° |
| 2026-05-04 03:05 | 28.75323 | -81.54679 | 15444 ft | 332 kts | 308° |
| 2026-05-04 03:05 | 28.76939 | -81.56582 | 16210 ft | 336 kts | 307° |
| 2026-05-04 03:06 | 28.78574 | -81.58509 | 16983 ft | 340 kts | 307° |
| 2026-05-04 03:06 | 28.80224 | -81.60454 | 17731 ft | 344 kts | 306° |
| 2026-05-04 03:06 | 28.81880 | -81.62406 | 18448 ft | 348 kts | 306° |
| 2026-05-04 03:06 | 28.83573 | -81.64403 | 19084 ft | 352 kts | 306° |
| 2026-05-04 03:07 | 28.85279 | -81.66416 | 19730 ft | 354 kts | 306° |
| 2026-05-04 03:07 | 28.86997 | -81.68445 | 20367 ft | 357 kts | 306° |
| 2026-05-04 03:07 | 28.88733 | -81.70496 | 21000 ft | 360 kts | 306° |
| 2026-05-04 03:07 | 28.90478 | -81.72559 | 21616 ft | 362 kts | 306° |
| 2026-05-04 03:08 | 28.92232 | -81.74635 | 22231 ft | 365 kts | 305° |
| 2026-05-04 03:08 | 28.94006 | -81.76734 | 22829 ft | 368 kts | 306° |
| 2026-05-04 03:08 | 28.95794 | -81.78851 | 23428 ft | 371 kts | 305° |
| 2026-05-04 03:08 | 28.97594 | -81.80983 | 23959 ft | 374 kts | 305° |
| 2026-05-04 03:09 | 28.99406 | -81.83131 | 24465 ft | 377 kts | 305° |
| 2026-05-04 03:09 | 29.01231 | -81.85296 | 24965 ft | 379 kts | 305° |
| 2026-05-04 03:09 | 29.03061 | -81.87467 | 25462 ft | 381 kts | 305° |
| 2026-05-04 03:09 | 29.04904 | -81.89656 | 25929 ft | 383 kts | 305° |
| 2026-05-04 03:10 | 29.06760 | -81.91861 | 26398 ft | 386 kts | 305° |
| 2026-05-04 03:10 | 29.08623 | -81.94076 | 26876 ft | 388 kts | 305° |
| 2026-05-04 03:10 | 29.10500 | -81.96308 | 27338 ft | 390 kts | 305° |
| 2026-05-04 03:10 | 29.12387 | -81.98553 | 27807 ft | 392 kts | 305° |
| 2026-05-04 03:11 | 29.14283 | -82.00811 | 28248 ft | 395 kts | 305° |
| 2026-05-04 03:11 | 29.16191 | -82.03084 | 28684 ft | 397 kts | 305° |
| 2026-05-04 03:11 | 29.18111 | -82.05373 | 29104 ft | 400 kts | 305° |
| 2026-05-04 03:11 | 29.20041 | -82.07675 | 29528 ft | 402 kts | 305° |
| 2026-05-04 03:12 | 29.21984 | -82.09993 | 29938 ft | 405 kts | 305° |
| 2026-05-04 03:12 | 29.23942 | -82.12332 | 30325 ft | 407 kts | 305° |
| 2026-05-04 03:12 | 29.25906 | -82.14678 | 30667 ft | 409 kts | 305° |
| 2026-05-04 03:12 | 29.27853 | -82.17007 | 31030 ft | 411 kts | 305° |
| 2026-05-04 03:13 | 29.29837 | -82.19380 | 31380 ft | 413 kts | 305° |
| 2026-05-04 03:13 | 29.31825 | -82.21760 | 31727 ft | 415 kts | 305° |
| 2026-05-04 03:13 | 29.33826 | -82.24157 | 32072 ft | 417 kts | 305° |
| 2026-05-04 03:13 | 29.35841 | -82.26571 | 32409 ft | 419 kts | 305° |
| 2026-05-04 03:14 | 29.37856 | -82.28987 | 32747 ft | 420 kts | 305° |
| 2026-05-04 03:14 | 29.39872 | -82.31407 | 33187 ft | 419 kts | 305° |
| 2026-05-04 03:14 | 29.41887 | -82.33826 | 33684 ft | 417 kts | 305° |
| 2026-05-04 03:14 | 29.43888 | -82.36230 | 34179 ft | 415 kts | 304° |
| 2026-05-04 03:15 | 29.45878 | -82.38621 | 34586 ft | 413 kts | 304° |
| 2026-05-04 03:15 | 29.47858 | -82.41004 | 34982 ft | 412 kts | 304° |
| 2026-05-04 03:15 | 29.49831 | -82.43378 | 35370 ft | 410 kts | 304° |
| 2026-05-04 03:15 | 29.51134 | -82.44948 | 35616 ft | 409 kts | 304° |
| 2026-05-04 03:16 | 29.53730 | -82.48076 | 36070 ft | 408 kts | 304° |
| 2026-05-04 03:16 | 29.57639 | -82.52789 | 36157 ft | 405 kts | 304° |
| 2026-05-04 03:17 | 29.61518 | -82.57474 | 36151 ft | 405 kts | 304° |
| 2026-05-04 03:17 | 29.64767 | -82.61401 | 36147 ft | 405 kts | 304° |
| 2026-05-04 03:18 | 29.68651 | -82.66101 | 36142 ft | 405 kts | 304° |
| 2026-05-04 03:18 | 29.72505 | -82.70771 | 36139 ft | 405 kts | 304° |
| 2026-05-04 03:19 | 29.76386 | -82.75479 | 36144 ft | 406 kts | 304° |
| 2026-05-04 03:19 | 29.80267 | -82.80193 | 36144 ft | 406 kts | 304° |
| 2026-05-04 03:20 | 29.84156 | -82.84922 | 36148 ft | 406 kts | 304° |
| 2026-05-04 03:20 | 29.88042 | -82.89653 | 36145 ft | 406 kts | 304° |
| 2026-05-04 03:21 | 29.91921 | -82.94382 | 36142 ft | 406 kts | 304° |
| 2026-05-04 03:21 | 29.95783 | -82.99094 | 36146 ft | 407 kts | 304° |
| 2026-05-04 03:22 | 29.99664 | -83.03837 | 36151 ft | 407 kts | 304° |
| 2026-05-04 03:22 | 30.03548 | -83.08589 | 36149 ft | 407 kts | 304° |
| 2026-05-04 03:23 | 30.07433 | -83.13348 | 36149 ft | 407 kts | 304° |
| 2026-05-04 03:23 | 30.11322 | -83.18117 | 36149 ft | 408 kts | 305° |
| 2026-05-04 03:24 | 30.15208 | -83.22890 | 36153 ft | 408 kts | 305° |
| 2026-05-04 03:24 | 30.19099 | -83.27673 | 36150 ft | 408 kts | 305° |
| 2026-05-04 03:25 | 30.23241 | -83.32210 | 36135 ft | 423 kts | 320° |
| 2026-05-04 03:25 | 30.25930 | -83.33727 | 36158 ft | 434 kts | 326° |
| 2026-05-04 03:25 | 30.28661 | -83.35115 | 36143 ft | 435 kts | 327° |
| 2026-05-04 03:26 | 30.34234 | -83.37869 | 36153 ft | 436 kts | 328° |
| 2026-05-04 03:26 | 30.39834 | -83.40587 | 36156 ft | 436 kts | 328° |
| 2026-05-04 03:27 | 30.45434 | -83.43301 | 36153 ft | 436 kts | 328° |
| 2026-05-04 03:27 | 30.51030 | -83.46015 | 36153 ft | 436 kts | 328° |
| 2026-05-04 03:28 | 30.56628 | -83.48733 | 36159 ft | 436 kts | 328° |
| 2026-05-04 03:28 | 30.62225 | -83.51455 | 36156 ft | 436 kts | 328° |
| 2026-05-04 03:29 | 30.67817 | -83.54178 | 36155 ft | 436 kts | 329° |
| 2026-05-04 03:29 | 30.73408 | -83.56903 | 36158 ft | 435 kts | 329° |
| 2026-05-04 03:30 | 30.78962 | -83.59614 | 36157 ft | 435 kts | 329° |
| 2026-05-04 03:30 | 30.84553 | -83.62347 | 36160 ft | 435 kts | 329° |
| 2026-05-04 03:31 | 30.90137 | -83.65079 | 36160 ft | 435 kts | 329° |
| 2026-05-04 03:31 | 30.95716 | -83.67813 | 36159 ft | 435 kts | 329° |
| 2026-05-04 03:32 | 31.01289 | -83.70547 | 36159 ft | 434 kts | 330° |
| 2026-05-04 03:32 | 31.06857 | -83.73281 | 36161 ft | 434 kts | 330° |
| 2026-05-04 03:33 | 31.12424 | -83.76020 | 36158 ft | 434 kts | 330° |
| 2026-05-04 03:33 | 31.17953 | -83.78742 | 36158 ft | 433 kts | 330° |
| 2026-05-04 03:34 | 31.23512 | -83.81484 | 36156 ft | 433 kts | 330° |
| 2026-05-04 03:34 | 31.29063 | -83.84224 | 36153 ft | 433 kts | 330° |
| 2026-05-04 03:35 | 31.34609 | -83.86966 | 36151 ft | 433 kts | 330° |
| 2026-05-04 03:35 | 31.40153 | -83.89710 | 36153 ft | 432 kts | 330° |
| 2026-05-04 03:36 | 31.45691 | -83.92454 | 36150 ft | 432 kts | 331° |
| 2026-05-04 03:36 | 31.51188 | -83.95177 | 36148 ft | 432 kts | 332° |
| 2026-05-04 03:36 | 31.54112 | -83.96128 | 36170 ft | 440 kts | 344° |
| 2026-05-04 03:37 | 31.57124 | -83.96777 | 36142 ft | 440 kts | 342° |
| 2026-05-04 03:37 | 31.63138 | -83.98138 | 36154 ft | 440 kts | 343° |
| 2026-05-04 03:38 | 31.69151 | -83.99476 | 36154 ft | 439 kts | 343° |
| 2026-05-04 03:38 | 31.75148 | -84.00810 | 36151 ft | 438 kts | 343° |
| 2026-05-04 03:39 | 31.81141 | -84.02145 | 36145 ft | 438 kts | 343° |
| 2026-05-04 03:39 | 31.87124 | -84.03480 | 36140 ft | 437 kts | 344° |
| 2026-05-04 03:40 | 31.93098 | -84.04814 | 36136 ft | 436 kts | 344° |
| 2026-05-04 03:40 | 31.99062 | -84.06148 | 36135 ft | 435 kts | 344° |
| 2026-05-04 03:41 | 32.05014 | -84.07481 | 36132 ft | 435 kts | 344° |
| 2026-05-04 03:41 | 32.10953 | -84.08813 | 36135 ft | 434 kts | 344° |
| 2026-05-04 03:42 | 32.16852 | -84.10137 | 36131 ft | 433 kts | 344° |
| 2026-05-04 03:42 | 32.22766 | -84.11467 | 36133 ft | 432 kts | 344° |
| 2026-05-04 03:43 | 32.28681 | -84.12798 | 36126 ft | 432 kts | 345° |
| 2026-05-04 03:43 | 32.34575 | -84.14127 | 36129 ft | 430 kts | 345° |
| 2026-05-04 03:44 | 32.40454 | -84.15454 | 36128 ft | 430 kts | 345° |
| 2026-05-04 03:44 | 32.46332 | -84.16783 | 36132 ft | 430 kts | 345° |
| 2026-05-04 03:45 | 32.52203 | -84.18112 | 36129 ft | 429 kts | 345° |
| 2026-05-04 03:45 | 32.58074 | -84.19442 | 36129 ft | 429 kts | 345° |
| 2026-05-04 03:46 | 32.63904 | -84.20765 | 36132 ft | 429 kts | 345° |
| 2026-05-04 03:46 | 32.69768 | -84.22098 | 36148 ft | 429 kts | 345° |
| 2026-05-04 03:47 | 32.75623 | -84.23430 | 36156 ft | 428 kts | 345° |
| 2026-05-04 03:47 | 32.81476 | -84.24764 | 36170 ft | 428 kts | 345° |
| 2026-05-04 03:48 | 32.87324 | -84.26098 | 36177 ft | 427 kts | 345° |
| 2026-05-04 03:48 | 32.93169 | -84.27433 | 36176 ft | 427 kts | 345° |
| 2026-05-04 03:49 | 32.99000 | -84.28767 | 36174 ft | 426 kts | 345° |
| 2026-05-04 03:49 | 33.04789 | -84.30093 | 36176 ft | 426 kts | 345° |
| 2026-05-04 03:50 | 33.10612 | -84.31429 | 36165 ft | 426 kts | 345° |
| 2026-05-04 03:50 | 33.16429 | -84.32765 | 36157 ft | 425 kts | 345° |
| 2026-05-04 03:51 | 33.22243 | -84.34103 | 36177 ft | 425 kts | 345° |
| 2026-05-04 03:51 | 33.28050 | -84.35440 | 36191 ft | 425 kts | 345° |
| 2026-05-04 03:52 | 33.33859 | -84.36780 | 36199 ft | 424 kts | 345° |
| 2026-05-04 03:52 | 33.39654 | -84.38118 | 36194 ft | 424 kts | 345° |
| 2026-05-04 03:53 | 33.45404 | -84.39447 | 36194 ft | 423 kts | 345° |
| 2026-05-04 03:53 | 33.51181 | -84.40785 | 36148 ft | 423 kts | 345° |
| 2026-05-04 03:54 | 33.56953 | -84.42123 | 36151 ft | 422 kts | 345° |
| 2026-05-04 03:54 | 33.62708 | -84.43496 | 36143 ft | 419 kts | 340° |
| 2026-05-04 03:55 | 33.68116 | -84.45944 | 36146 ft | 416 kts | 335° |
| 2026-05-04 03:55 | 33.73511 | -84.48452 | 36149 ft | 415 kts | 335° |
| 2026-05-04 03:56 | 33.78896 | -84.50969 | 36146 ft | 414 kts | 335° |
| 2026-05-04 03:56 | 33.84268 | -84.53485 | 36148 ft | 414 kts | 335° |
| 2026-05-04 03:57 | 33.89628 | -84.55998 | 36130 ft | 413 kts | 335° |
| 2026-05-04 03:57 | 33.94950 | -84.58496 | 36157 ft | 413 kts | 335° |
| 2026-05-04 03:58 | 34.02637 | -84.62992 | 36161 ft | 409 kts | 329° |
| 2026-05-04 03:58 | 34.07716 | -84.66092 | 36156 ft | 409 kts | 329° |
| 2026-05-04 03:59 | 34.12787 | -84.69173 | 36156 ft | 409 kts | 329° |
| 2026-05-04 03:59 | 34.17865 | -84.72261 | 36149 ft | 407 kts | 329° |
| 2026-05-04 04:00 | 34.22931 | -84.75346 | 36150 ft | 407 kts | 329° |
| 2026-05-04 04:00 | 34.27986 | -84.78427 | 36147 ft | 407 kts | 329° |
| 2026-05-04 04:01 | 34.33039 | -84.81513 | 36141 ft | 406 kts | 329° |
| 2026-05-04 04:01 | 34.38081 | -84.84595 | 36136 ft | 406 kts | 329° |
| 2026-05-04 04:02 | 34.43118 | -84.87678 | 36136 ft | 405 kts | 329° |
| 2026-05-04 04:02 | 34.48110 | -84.90738 | 36147 ft | 404 kts | 329° |
| 2026-05-04 04:03 | 34.53141 | -84.93826 | 36139 ft | 404 kts | 329° |
| 2026-05-04 04:03 | 34.58161 | -84.96912 | 36135 ft | 404 kts | 329° |
| 2026-05-04 04:04 | 34.62326 | -84.99474 | 36136 ft | 403 kts | 329° |
| 2026-05-04 04:04 | 34.67146 | -85.02894 | 36143 ft | 400 kts | 323° |
| 2026-05-04 04:05 | 34.71839 | -85.06558 | 36147 ft | 401 kts | 324° |
| 2026-05-04 04:05 | 34.76519 | -85.10167 | 36001 ft | 389 kts | 324° |
| 2026-05-04 04:06 | 34.78748 | -85.11884 | 35604 ft | 383 kts | 324° |
| 2026-05-04 04:06 | 34.80996 | -85.13617 | 35099 ft | 380 kts | 324° |
| 2026-05-04 04:06 | 34.83214 | -85.15327 | 34644 ft | 376 kts | 324° |
| 2026-05-04 04:06 | 34.85415 | -85.17025 | 34198 ft | 373 kts | 324° |
| 2026-05-04 04:07 | 34.87591 | -85.18706 | 33700 ft | 369 kts | 324° |
| 2026-05-04 04:07 | 34.89751 | -85.20375 | 33227 ft | 365 kts | 324° |
| 2026-05-04 04:07 | 34.91882 | -85.22022 | 32797 ft | 361 kts | 324° |
| 2026-05-04 04:07 | 34.93988 | -85.23651 | 32376 ft | 356 kts | 324° |
| 2026-05-04 04:08 | 34.96073 | -85.25266 | 31959 ft | 352 kts | 324° |
| 2026-05-04 04:08 | 34.98133 | -85.26861 | 31536 ft | 349 kts | 324° |
| 2026-05-04 04:08 | 35.00169 | -85.28438 | 31140 ft | 345 kts | 324° |
| 2026-05-04 04:08 | 35.02194 | -85.30009 | 30733 ft | 342 kts | 324° |
| 2026-05-04 04:09 | 35.04167 | -85.31540 | 30348 ft | 339 kts | 324° |
| 2026-05-04 04:09 | 35.06155 | -85.33083 | 29913 ft | 337 kts | 324° |
| 2026-05-04 04:09 | 35.08126 | -85.34615 | 29494 ft | 333 kts | 324° |
| 2026-05-04 04:09 | 35.10063 | -85.36120 | 29167 ft | 329 kts | 323° |
| 2026-05-04 04:10 | 35.12017 | -85.37640 | 28772 ft | 336 kts | 324° |
| 2026-05-04 04:10 | 35.13998 | -85.39182 | 28340 ft | 339 kts | 324° |
| 2026-05-04 04:10 | 35.15953 | -85.40793 | 27900 ft | 337 kts | 316° |
| 2026-05-04 04:10 | 35.17581 | -85.42831 | 27540 ft | 335 kts | 311° |
| 2026-05-04 04:11 | 35.19202 | -85.44872 | 27228 ft | 334 kts | 312° |
| 2026-05-04 04:11 | 35.20818 | -85.46917 | 26868 ft | 333 kts | 311° |
| 2026-05-04 04:11 | 35.22422 | -85.48953 | 26509 ft | 332 kts | 311° |
| 2026-05-04 04:11 | 35.24018 | -85.50985 | 26156 ft | 330 kts | 311° |
| 2026-05-04 04:12 | 35.25608 | -85.53013 | 25798 ft | 329 kts | 311° |
| 2026-05-04 04:12 | 35.27169 | -85.55004 | 25453 ft | 328 kts | 311° |
| 2026-05-04 04:12 | 35.28745 | -85.57017 | 25101 ft | 326 kts | 311° |
| 2026-05-04 04:12 | 35.30313 | -85.59019 | 24751 ft | 325 kts | 311° |
| 2026-05-04 04:13 | 35.31877 | -85.61019 | 24406 ft | 324 kts | 311° |
| 2026-05-04 04:13 | 35.33433 | -85.63009 | 24063 ft | 323 kts | 311° |
| 2026-05-04 04:13 | 35.34980 | -85.64988 | 23708 ft | 321 kts | 311° |
| 2026-05-04 04:13 | 35.36512 | -85.66950 | 23466 ft | 315 kts | 311° |
| 2026-05-04 04:14 | 35.38045 | -85.68916 | 23271 ft | 326 kts | 311° |
| 2026-05-04 04:14 | 35.39653 | -85.70976 | 23038 ft | 342 kts | 311° |
| 2026-05-04 04:14 | 35.41313 | -85.73106 | 22689 ft | 348 kts | 311° |
| 2026-05-04 04:14 | 35.42992 | -85.75261 | 22260 ft | 350 kts | 311° |
| 2026-05-04 04:15 | 35.44675 | -85.77423 | 21821 ft | 349 kts | 311° |
| 2026-05-04 04:15 | 35.46345 | -85.79569 | 21376 ft | 347 kts | 312° |
| 2026-05-04 04:15 | 35.48008 | -85.81709 | 20931 ft | 345 kts | 312° |
| 2026-05-04 04:15 | 35.49659 | -85.83833 | 20496 ft | 343 kts | 312° |
| 2026-05-04 04:16 | 35.51301 | -85.85949 | 20068 ft | 341 kts | 312° |
| 2026-05-04 04:16 | 35.52916 | -85.88028 | 19654 ft | 339 kts | 312° |
| 2026-05-04 04:16 | 35.54536 | -85.90116 | 19246 ft | 337 kts | 312° |
| 2026-05-04 04:16 | 35.56119 | -85.92217 | 18910 ft | 333 kts | 311° |
| 2026-05-04 04:17 | 35.57694 | -85.94324 | 18628 ft | 335 kts | 311° |
| 2026-05-04 04:17 | 35.59272 | -85.96433 | 18336 ft | 335 kts | 311° |
| 2026-05-04 04:17 | 35.60845 | -85.98534 | 18004 ft | 333 kts | 311° |
| 2026-05-04 04:17 | 35.62411 | -86.00627 | 17645 ft | 332 kts | 311° |
| 2026-05-04 04:18 | 35.63967 | -86.02708 | 17318 ft | 330 kts | 311° |
| 2026-05-04 04:18 | 35.65515 | -86.04778 | 17003 ft | 328 kts | 312° |
| 2026-05-04 04:18 | 35.67060 | -86.06848 | 16664 ft | 327 kts | 312° |
| 2026-05-04 04:18 | 35.68593 | -86.08903 | 16374 ft | 325 kts | 312° |
| 2026-05-04 04:19 | 35.70119 | -86.10952 | 16098 ft | 324 kts | 312° |
| 2026-05-04 04:19 | 35.71545 | -86.13082 | 15756 ft | 322 kts | 306° |
| 2026-05-04 04:19 | 35.72998 | -86.15151 | 15449 ft | 320 kts | 319° |
| 2026-05-04 04:19 | 35.74754 | -86.16811 | 15206 ft | 315 kts | 322° |
| 2026-05-04 04:20 | 35.76515 | -86.18413 | 14613 ft | 320 kts | 322° |
| 2026-05-04 04:20 | 35.78295 | -86.20045 | 14288 ft | 315 kts | 322° |
| 2026-05-04 04:20 | 35.80027 | -86.21640 | 14113 ft | 306 kts | 322° |
| 2026-05-04 04:20 | 35.81716 | -86.23197 | 13811 ft | 301 kts | 322° |
| 2026-05-04 04:21 | 35.83393 | -86.24746 | 13382 ft | 301 kts | 322° |
| 2026-05-04 04:21 | 35.85081 | -86.26256 | 12958 ft | 299 kts | 325° |
| 2026-05-04 04:21 | 35.86810 | -86.27679 | 12546 ft | 298 kts | 326° |
| 2026-05-04 04:21 | 35.88532 | -86.29086 | 12135 ft | 297 kts | 325° |
| 2026-05-04 04:22 | 35.90229 | -86.30472 | 11699 ft | 295 kts | 325° |
| 2026-05-04 04:22 | 35.91938 | -86.31868 | 11256 ft | 293 kts | 325° |
| 2026-05-04 04:22 | 35.93633 | -86.33252 | 10709 ft | 292 kts | 326° |
| 2026-05-04 04:22 | 35.95323 | -86.34631 | 10233 ft | 291 kts | 326° |
| 2026-05-04 04:23 | 35.97007 | -86.36003 | 9667 ft | 289 kts | 326° |
| 2026-05-04 04:23 | 35.98686 | -86.37366 | 9106 ft | 288 kts | 326° |
| 2026-05-04 04:23 | 36.00361 | -86.38718 | 8584 ft | 287 kts | 326° |
| 2026-05-04 04:23 | 36.02030 | -86.40060 | 8046 ft | 286 kts | 326° |
| 2026-05-04 04:24 | 36.03699 | -86.41393 | 7465 ft | 285 kts | 326° |
| 2026-05-04 04:24 | 36.05364 | -86.42718 | 6901 ft | 284 kts | 326° |
| 2026-05-04 04:24 | 36.07024 | -86.44033 | 6314 ft | 284 kts | 326° |
| 2026-05-04 04:24 | 36.08689 | -86.45343 | 5745 ft | 282 kts | 326° |
| 2026-05-04 04:25 | 36.10335 | -86.46643 | 5197 ft | 280 kts | 326° |
| 2026-05-04 04:25 | 36.11971 | -86.47934 | 4649 ft | 278 kts | 326° |
| 2026-05-04 04:25 | 36.13603 | -86.49217 | 4048 ft | 278 kts | 326° |
| 2026-05-04 04:25 | 36.15240 | -86.50489 | 3466 ft | 278 kts | 326° |
| 2026-05-04 04:26 | 36.16866 | -86.51744 | 3065 ft | 271 kts | 325° |
| 2026-05-04 04:26 | 36.18327 | -86.53112 | 2736 ft | 254 kts | 315° |
| 2026-05-04 04:26 | 36.19536 | -86.54601 | 2226 ft | 235 kts | 308° |
| 2026-05-04 04:26 | 36.20419 | -86.56115 | 2224 ft | 200 kts | 296° |
| 2026-05-04 04:27 | 36.20754 | -86.57631 | 2192 ft | 170 kts | 275° |
| 2026-05-04 04:27 | 36.20875 | -86.59056 | 2127 ft | 164 kts | 273° |
| 2026-05-04 04:27 | 36.20887 | -86.60468 | 2012 ft | 167 kts | 261° |
| 2026-05-04 04:27 | 36.20552 | -86.61828 | 1944 ft | 167 kts | 242° |
| 2026-05-04 04:28 | 36.19865 | -86.62898 | 1855 ft | 150 kts | 218° |
| 2026-05-04 04:28 | 36.19002 | -86.63514 | 1659 ft | 140 kts | 206° |
| 2026-05-04 04:28 | 36.18094 | -86.63986 | 1483 ft | 143 kts | 202° |
| 2026-05-04 04:28 | 36.17151 | -86.64404 | 1349 ft | 143 kts | 199° |
| 2026-05-04 04:29 | 36.16213 | -86.64789 | 1162 ft | 141 kts | 198° |
| 2026-05-04 04:29 | 36.15282 | -86.65148 | 977 ft | 140 kts | 198° |
| 2026-05-04 04:29 | 36.14348 | -86.65524 | 765 ft | 141 kts | 198° |
| 2026-05-04 04:29 | 36.13429 | -86.65903 | 590 ft | 137 kts | 198° |
| 2026-05-04 04:30 | 36.12620 | -86.66229 | 568 ft | 91 kts | 198° |
| 2026-05-04 04:30 | 36.12257 | -86.66374 | 573 ft | 44 kts | 198° |
| 2026-05-04 04:30 | 36.11961 | -86.66493 | 580 ft | 44 kts | 199° |
| 2026-05-04 04:30 | 36.11847 | -86.66619 | 583 ft | 18 kts | 289° |
| 2026-05-04 04:31 | 36.11958 | -86.66636 | 582 ft | 21 kts | 18° |
| 2026-05-04 04:31 | 36.12109 | -86.66575 | 575 ft | 26 kts | 18° |
| 2026-05-04 04:31 | 36.12277 | -86.66548 | 572 ft | 22 kts | 310° |
| 2026-05-04 04:31 | 36.12331 | -86.66738 | 574 ft | 25 kts | 288° |
| 2026-05-04 04:32 | 36.12424 | -86.66927 | 574 ft | 20 kts | 313° |
| 2026-05-04 04:32 | 36.12551 | -86.66909 | 574 ft | 21 kts | 30° |
| 2026-05-04 04:32 | 36.12666 | -86.66826 | 577 ft | 17 kts | 36° |
| 2026-05-04 04:32 | 36.12771 | -86.66739 | 573 ft | 18 kts | 11° |
| 2026-05-04 04:33 | 36.12832 | -86.66694 | 571 ft | 6 kts | 83° |
| 2026-05-04 04:33 | 36.12833 | -86.66661 | 572 ft | 2 kts | 86° |
| 2026-05-04 04:33 | 36.12833 | -86.66656 | 572 ft | 1 kts | 85° |
| 2026-05-04 04:33 | 36.12833 | -86.66653 | 572 ft | 0 kts | 86° |